Time;durP1;ratioP1;P1;durP2;ratioP2;P2;SDS_P1;SDS_P2;PMS_P1;PMS_P2;Temp;Humidity;BMP_temperature;BMP_pressure;BME280_temperature;BME280_humidity;BME280_pressure;Samples;Min_cycle;Max_cycle;Signal;HPM_P1;HPM_P2
2023/02/10 00:01:24;;;;;;;20.07;11.57;;;;;;;-0.44;94.58;102384.78;4974121;28;20042;-79
2023/02/10 00:03:52;;;;;;;21.97;11.47;;;;;;;-0.42;94.79;102396.13;4977270;28;20096;-79
2023/02/10 00:06:23;;;;;;;22.90;10.50;;;;;;;-0.40;94.70;102389.34;4976481;28;20042;-78
2023/02/10 00:08:52;;;;;;;23.70;13.30;;;;;;;-0.27;93.52;102404.72;4975636;28;20054;-78
2023/02/10 00:11:19;;;;;;;21.50;10.93;;;;;;;-0.26;92.91;102398.69;4959689;28;20057;-78
2023/02/10 00:13:46;;;;;;;19.33;12.27;;;;;;;-0.19;93.10;102399.91;4952899;28;20046;-79
2023/02/10 00:16:14;;;;;;;20.03;10.47;;;;;;;-0.33;93.61;102391.44;4941607;28;20050;-78
2023/02/10 00:18:41;;;;;;;23.47;11.70;;;;;;;-0.22;93.79;102398.06;4990998;28;20038;-79
2023/02/10 00:21:11;;;;;;;24.87;12.07;;;;;;;-0.31;93.81;102400.19;4971969;28;20424;-79
2023/02/10 00:23:38;;;;;;;22.17;12.00;;;;;;;-0.29;94.01;102402.03;4973785;28;20467;-79
2023/02/10 00:26:06;;;;;;;19.60;11.13;;;;;;;-0.39;95.05;102406.69;4948690;28;20045;-79
2023/02/10 00:28:33;;;;;;;23.60;13.07;;;;;;;-0.28;95.75;102410.72;4968233;28;20053;-78
2023/02/10 00:31:07;;;;;;;20.73;11.17;;;;;;;-0.32;95.85;102404.50;4975095;28;20053;-79
2023/02/10 00:33:35;;;;;;;20.48;11.90;;;;;;;-0.33;96.33;102412.22;4980922;28;20474;-79
2023/02/10 00:36:06;;;;;;;23.57;12.13;;;;;;;-0.37;97.16;102415.44;4979798;28;20640;-78
2023/02/10 00:38:34;;;;;;;24.63;12.60;;;;;;;-0.39;97.61;102414.47;4980709;28;20383;-79
2023/02/10 00:41:05;;;;;;;20.63;12.07;;;;;;;-0.38;97.72;102418.84;4981581;28;20680;-79
2023/02/10 00:43:32;;;;;;;21.17;11.97;;;;;;;-0.40;98.85;102417.91;4996676;28;20122;-79
2023/02/10 00:45:59;;;;;;;21.50;11.33;;;;;;;-0.43;99.08;102409.94;4993673;28;20038;-79
2023/02/10 00:48:26;;;;;;;21.80;11.67;;;;;;;-0.31;99.35;102418.38;4977599;28;20506;-79
2023/02/10 00:50:52;;;;;;;22.87;13.03;;;;;;;-0.13;99.73;102414.13;4971576;28;20077;-79
2023/02/10 00:53:19;;;;;;;23.00;11.37;;;;;;;-0.22;100.00;102421.44;5012767;28;20045;-79
2023/02/10 00:55:46;;;;;;;25.60;12.03;;;;;;;-0.26;100.00;102419.47;5011883;28;20768;-79
2023/02/10 00:58:13;;;;;;;22.87;11.67;;;;;;;-0.31;100.00;102427.06;4970409;28;20042;-79
2023/02/10 01:00:40;;;;;;;22.23;12.23;;;;;;;-0.24;100.00;102424.78;4959853;28;20411;-79
2023/02/10 01:03:06;;;;;;;26.23;13.07;;;;;;;-0.18;100.00;102419.88;4960166;28;20066;-79
2023/02/10 01:05:33;;;;;;;23.77;12.67;;;;;;;-0.27;100.00;102407.31;4977258;28;20046;-79
2023/02/10 01:08:00;;;;;;;25.00;12.97;;;;;;;-0.36;100.00;102412.94;4996804;28;20064;-80
2023/02/10 01:10:27;;;;;;;25.63;13.80;;;;;;;-0.24;100.00;102410.09;5092063;23;20021;-80
2023/02/10 01:12:53;;;;;;;28.13;13.40;;;;;;;-0.41;100.00;102413.53;4987137;28;20049;-78
2023/02/10 01:15:20;;;;;;;24.47;13.00;;;;;;;-0.50;100.00;102413.94;4984713;28;20066;-80
2023/02/10 01:17:47;;;;;;;24.57;13.43;;;;;;;-0.41;100.00;102426.50;4982013;28;20040;-80
2023/02/10 01:20:13;;;;;;;25.73;14.03;;;;;;;-0.50;100.00;102420.84;4985297;28;20030;-78
2023/02/10 01:22:40;;;;;;;25.33;13.73;;;;;;;-0.65;100.00;102419.19;4986073;28;20042;-80
2023/02/10 01:25:07;;;;;;;24.77;14.00;;;;;;;-0.75;100.00;102429.03;4987470;28;20510;-80
2023/02/10 01:27:33;;;;;;;22.77;13.30;;;;;;;-0.71;100.00;102420.56;4976140;28;20042;-80
2023/02/10 01:30:00;;;;;;;26.67;14.27;;;;;;;-0.77;100.00;102418.53;4997254;28;20490;-81
2023/02/10 01:32:26;;;;;;;27.97;15.53;;;;;;;-0.76;100.00;102419.41;4983937;28;20084;-80
2023/02/10 01:34:53;;;;;;;27.60;14.53;;;;;;;-0.85;100.00;102423.31;4996263;28;20466;-80
2023/02/10 01:37:20;;;;;;;25.97;13.37;;;;;;;-0.81;100.00;102426.09;4979072;28;20399;-80
2023/02/10 01:39:46;;;;;;;26.27;12.60;;;;;;;-0.80;100.00;102420.97;4987626;28;20042;-80
2023/02/10 01:42:14;;;;;;;27.03;13.90;;;;;;;-0.58;100.00;102431.69;4967232;28;20046;-79
2023/02/10 01:44:40;;;;;;;24.13;13.37;;;;;;;-0.59;100.00;102429.00;4994463;28;20048;-80
2023/02/10 01:47:07;;;;;;;32.97;15.50;;;;;;;-0.56;100.00;102429.19;5013291;28;20511;-80
2023/02/10 01:49:47;;;;;;;30.40;15.97;;;;;;;-0.42;100.00;102430.81;4988549;28;20038;-80
2023/02/10 01:52:22;;;;;;;23.70;13.47;;;;;;;-0.37;100.00;102431.91;5015973;28;20033;-80
2023/02/10 01:54:56;;;;;;;26.53;14.57;;;;;;;-0.43;100.00;102428.09;5015915;28;20049;-80
2023/02/10 01:57:22;;;;;;;27.63;15.20;;;;;;;-0.43;100.00;102433.28;4998607;28;20434;-81
2023/02/10 01:59:49;;;;;;;30.47;15.10;;;;;;;-0.51;100.00;102426.81;5004267;28;20046;-80
2023/02/10 02:02:17;;;;;;;28.57;15.07;;;;;;;-0.41;100.00;102419.59;4995893;28;20046;-80
2023/02/10 02:04:59;;;;;;;24.90;14.47;;;;;;;-0.46;100.00;102412.38;4996008;28;20050;-79
2023/02/10 02:07:28;;;;;;;28.47;15.17;;;;;;;-0.39;100.00;102423.16;4990860;28;20140;-81
2023/02/10 02:09:59;;;;;;;30.40;15.83;;;;;;;-0.41;100.00;102417.00;5028390;28;20045;-81
2023/02/10 02:12:53;;;;;;;29.13;15.37;;;;;;;-0.35;100.00;102412.09;4980497;28;20053;-81
2023/02/10 02:15:39;;;;;;;28.87;14.17;;;;;;;-0.29;100.00;102408.94;4978877;28;20056;-80
2023/02/10 02:18:28;;;;;;;25.83;14.53;;;;;;;-0.36;100.00;102404.25;4978312;28;20288;-81
2023/02/10 02:21:22;;;;;;;35.70;16.47;;;;;;;-0.30;100.00;102404.56;5014183;28;20041;-80
2023/02/10 02:24:15;;;;;;;33.20;16.27;;;;;;;-0.19;100.00;102410.31;5015891;28;20051;-81
2023/02/10 02:26:56;;;;;;;29.97;15.37;;;;;;;-0.15;100.00;102405.34;5000006;28;20047;-82
2023/02/10 02:29:43;;;;;;;31.97;17.67;;;;;;;-0.22;100.00;102408.44;5027690;28;20049;-80
2023/02/10 02:32:20;;;;;;;28.67;16.37;;;;;;;-0.24;100.00;102412.69;5011920;28;20552;-80
2023/02/10 02:35:07;;;;;;;28.03;16.33;;;;;;;-0.24;100.00;102417.00;5014669;28;20041;-80
2023/02/10 02:37:36;;;;;;;28.40;15.77;;;;;;;-0.27;100.00;102409.91;5013237;28;20490;-80
2023/02/10 02:40:04;;;;;;;33.47;15.93;;;;;;;-0.23;100.00;102405.78;5002597;28;20101;-81
2023/02/10 02:42:32;;;;;;;32.97;16.53;;;;;;;-0.19;100.00;102407.72;4995160;28;20041;-80
2023/02/10 02:45:08;;;;;;;28.10;15.53;;;;;;;-0.25;100.00;102403.13;4978099;28;20045;-79
2023/02/10 02:47:42;;;;;;;32.50;16.47;;;;;;;-0.10;100.00;102396.06;4994669;28;20038;-80
2023/02/10 02:50:23;;;;;;;36.13;16.80;;;;;;;0.09;100.00;102394.44;4998271;28;20038;-79
2023/02/10 02:53:10;;;;;;;29.90;17.03;;;;;;;0.05;100.00;102387.28;5010785;28;20068;-80
2023/02/10 02:55:50;;;;;;;35.87;17.53;;;;;;;0.06;100.00;102389.06;4977695;28;20054;-80
2023/02/10 02:58:20;;;;;;;33.07;17.67;;;;;;;0.01;100.00;102400.94;4995500;28;20048;-81
2023/02/10 03:00:47;;;;;;;39.73;19.90;;;;;;;-0.13;100.00;102389.84;5021418;28;20045;-80
2023/02/10 03:03:14;;;;;;;33.97;17.63;;;;;;;-0.06;100.00;102398.03;5017283;28;20450;-80
2023/02/10 03:05:41;;;;;;;31.03;16.63;;;;;;;0.03;100.00;102397.59;4976109;28;20054;-80
2023/02/10 03:08:07;;;;;;;37.17;18.50;;;;;;;0.02;100.00;102400.13;4977112;28;20140;-79
2023/02/10 03:10:34;;;;;;;34.07;16.53;;;;;;;-0.06;100.00;102382.44;4967384;28;20053;-79
2023/02/10 03:13:01;;;;;;;30.37;16.07;;;;;;;-0.04;100.00;102385.09;4979904;28;20042;-79
2023/02/10 03:15:30;;;;;;;33.23;17.53;;;;;;;0.03;100.00;102387.19;4967732;28;20046;-79
2023/02/10 03:17:57;;;;;;;31.33;17.73;;;;;;;0.03;100.00;102391.50;4998582;28;20042;-80
2023/02/10 03:20:23;;;;;;;32.87;17.97;;;;;;;0.00;100.00;102402.66;4977620;28;20130;-80
2023/02/10 03:22:50;;;;;;;37.77;19.00;;;;;;;0.07;100.00;102403.81;4993063;28;20170;-79
2023/02/10 03:25:17;;;;;;;37.17;19.37;;;;;;;-0.01;100.00;102395.63;5000104;28;20033;-80
2023/02/10 03:27:43;;;;;;;36.30;17.73;;;;;;;-0.06;100.00;102405.81;4978351;28;20049;-78
2023/02/10 03:30:10;;;;;;;36.80;18.03;;;;;;;-0.07;100.00;102403.16;4977398;28;20038;-79
2023/02/10 03:32:37;;;;;;;34.27;17.90;;;;;;;-0.18;100.00;102410.38;4992474;28;20108;-79
2023/02/10 03:35:04;;;;;;;32.20;17.60;;;;;;;-0.32;100.00;102409.69;4968098;28;20042;-79
2023/02/10 03:37:30;;;;;;;35.47;18.70;;;;;;;-0.33;100.00;102407.91;5001501;28;20049;-79
2023/02/10 03:39:57;;;;;;;35.63;18.73;;;;;;;-0.16;100.00;102405.28;4991985;28;20042;-79
2023/02/10 03:42:24;;;;;;;35.43;18.83;;;;;;;-0.33;100.00;102400.13;4967711;28;20046;-79
2023/02/10 03:44:50;;;;;;;35.20;19.63;;;;;;;-0.46;100.00;102397.69;4978252;28;20506;-80
2023/02/10 03:47:17;;;;;;;36.67;18.70;;;;;;;-0.37;100.00;102400.75;5010643;28;20034;-80
2023/02/10 03:49:44;;;;;;;36.13;20.00;;;;;;;-0.35;100.00;102403.44;4978258;28;20054;-81
2023/02/10 03:52:10;;;;;;;32.20;18.63;;;;;;;-0.50;100.00;102410.44;5004996;28;20429;-81
2023/02/10 03:54:37;;;;;;;32.33;17.47;;;;;;;-0.49;100.00;102410.53;4999912;28;20042;-80
2023/02/10 03:57:05;;;;;;;35.93;20.07;;;;;;;-0.61;100.00;102418.53;4984855;28;20053;-79
2023/02/10 03:59:32;;;;;;;39.90;20.03;;;;;;;-0.61;100.00;102421.13;4999313;28;20034;-81
2023/02/10 04:01:59;;;;;;;42.30;20.37;;;;;;;-0.62;100.00;102419.34;4976579;28;20037;-82
2023/02/10 04:04:26;;;;;;;43.93;20.53;;;;;;;-0.51;100.00;102424.22;4967050;28;20583;-81
2023/02/10 04:06:53;;;;;;;37.83;19.10;;;;;;;-0.65;100.00;102420.91;4977406;28;20054;-81
2023/02/10 04:09:20;;;;;;;41.20;20.50;;;;;;;-0.67;100.00;102426.03;4976560;28;20096;-81
2023/02/10 04:11:46;;;;;;;40.37;20.57;;;;;;;-0.73;100.00;102438.66;4997474;28;20084;-81
2023/02/10 04:14:13;;;;;;;40.00;21.53;;;;;;;-0.61;100.00;102438.41;4993138;28;20434;-81
2023/02/10 04:16:43;;;;;;;44.53;21.03;;;;;;;-0.56;100.00;102436.97;5000268;28;20045;-81
2023/02/10 04:19:09;;;;;;;47.10;21.23;;;;;;;-0.53;100.00;102444.00;4997414;28;20491;-81
2023/02/10 04:21:36;;;;;;;45.07;22.20;;;;;;;-0.62;100.00;102445.31;4982497;28;20573;-81
2023/02/10 04:24:06;;;;;;;42.53;22.37;;;;;;;-0.73;100.00;102443.84;4997441;28;20133;-80
2023/02/10 04:26:33;;;;;;;43.67;22.57;;;;;;;-0.63;100.00;102438.34;4997682;28;20426;-81
2023/02/10 04:29:01;;;;;;;53.73;23.63;;;;;;;-0.66;100.00;102445.09;4980711;28;20042;-82
2023/02/10 04:31:27;;;;;;;49.60;22.97;;;;;;;-0.60;100.00;102441.09;4982496;28;20365;-81
2023/02/10 04:33:54;;;;;;;50.10;24.13;;;;;;;-0.63;100.00;102443.53;4996846;28;20048;-81
2023/02/10 04:36:24;;;;;;;47.17;22.77;;;;;;;-0.68;100.00;102450.16;4967083;28;20089;-80
2023/02/10 04:38:50;;;;;;;51.10;24.43;;;;;;;-0.65;100.00;102444.25;4984792;28;20041;-80
2023/02/10 04:41:17;;;;;;;43.00;22.77;;;;;;;-0.70;100.00;102456.97;4980121;28;20046;-80
2023/02/10 04:43:44;;;;;;;47.77;24.73;;;;;;;-0.68;100.00;102457.06;5014749;28;20074;-80
2023/02/10 04:46:10;;;;;;;47.17;23.23;;;;;;;-0.47;100.00;102446.94;4983069;28;20048;-80
2023/02/10 04:48:37;;;;;;;46.17;23.20;;;;;;;-0.51;100.00;102452.78;4983232;28;20065;-80
2023/02/10 04:51:08;;;;;;;51.67;26.20;;;;;;;-0.44;100.00;102449.69;4997765;28;20044;-80
2023/02/10 04:53:35;;;;;;;49.00;25.30;;;;;;;-0.39;100.00;102451.72;4998030;28;20414;-81
2023/02/10 04:56:03;;;;;;;56.70;25.27;;;;;;;-0.51;100.00;102448.47;4997316;28;20042;-82
2023/02/10 04:58:31;;;;;;;49.77;23.33;;;;;;;-0.50;100.00;102455.47;5001616;28;20433;-81
2023/02/10 05:00:57;;;;;;;52.03;23.63;;;;;;;-0.40;100.00;102449.06;5001192;28;20050;-80
2023/02/10 05:03:24;;;;;;;49.93;24.73;;;;;;;-0.44;100.00;102454.88;4997153;28;20549;-80
2023/02/10 05:05:52;;;;;;;49.17;24.57;;;;;;;-0.47;100.00;102449.53;4967114;28;20042;-80
2023/02/10 05:08:19;;;;;;;51.63;25.63;;;;;;;-0.50;100.00;102447.69;4982622;28;20682;-81
2023/02/10 05:10:47;;;;;;;47.80;25.30;;;;;;;-0.54;100.00;102445.72;4987803;28;20487;-80
2023/02/10 05:13:13;;;;;;;52.67;26.03;;;;;;;-0.52;100.00;102456.19;4960747;28;20491;-81
2023/02/10 05:15:40;;;;;;;48.53;26.00;;;;;;;-0.55;100.00;102446.53;4984842;28;20053;-80
2023/02/10 05:18:07;;;;;;;50.73;24.00;;;;;;;-0.54;100.00;102458.69;4992464;28;20034;-80
2023/02/10 05:20:34;;;;;;;48.70;24.93;;;;;;;-0.44;100.00;102465.25;4998945;28;20043;-82
2023/02/10 05:23:00;;;;;;;55.57;25.50;;;;;;;-0.44;100.00;102460.06;4978925;28;20057;-81
2023/02/10 05:25:27;;;;;;;47.37;24.07;;;;;;;-0.40;100.00;102451.66;4981760;28;20697;-81
2023/02/10 05:27:54;;;;;;;53.13;27.40;;;;;;;-0.43;100.00;102454.97;4981471;28;20050;-81
2023/02/10 05:30:21;;;;;;;54.43;24.57;;;;;;;-0.45;100.00;102460.88;4998635;28;20121;-80
2023/02/10 05:32:47;;;;;;;47.67;25.43;;;;;;;-0.45;100.00;102458.28;4996970;28;20147;-81
2023/02/10 05:35:14;;;;;;;53.07;26.47;;;;;;;-0.28;100.00;102460.97;4980570;28;20042;-81
2023/02/10 05:37:41;;;;;;;63.60;26.90;;;;;;;-0.36;100.00;102469.16;4981343;28;20499;-80
2023/02/10 05:40:08;;;;;;;52.53;26.43;;;;;;;-0.32;100.00;102455.53;4962258;28;20056;-82
2023/02/10 05:42:34;;;;;;;56.07;26.37;;;;;;;-0.22;100.00;102470.78;4997089;28;20042;-80
2023/02/10 05:45:01;;;;;;;52.00;25.53;;;;;;;-0.18;100.00;102472.72;4999925;28;20046;-80
2023/02/10 05:47:28;;;;;;;47.40;24.83;;;;;;;-0.15;100.00;102474.59;4994017;28;20430;-80
2023/02/10 05:49:54;;;;;;;53.73;26.30;;;;;;;-0.24;100.00;102484.53;5010967;28;20045;-80
2023/02/10 05:52:21;;;;;;;55.23;26.07;;;;;;;-0.27;100.00;102482.63;5020671;28;20044;-80
2023/02/10 05:54:48;;;;;;;56.17;28.57;;;;;;;-0.23;100.00;102492.38;5015136;28;20042;-80
2023/02/10 05:57:14;;;;;;;54.67;28.17;;;;;;;-0.19;100.00;102491.72;4994848;28;20507;-80
2023/02/10 05:59:41;;;;;;;50.23;25.80;;;;;;;-0.15;100.00;102501.47;4994631;28;20072;-79
2023/02/10 06:02:08;;;;;;;53.70;26.90;;;;;;;-0.15;100.00;102503.19;4994182;28;20045;-80
2023/02/10 06:04:35;;;;;;;54.13;28.43;;;;;;;-0.02;100.00;102505.59;4975193;28;20138;-79
2023/02/10 06:07:02;;;;;;;57.00;29.10;;;;;;;-0.08;100.00;102502.69;4993772;28;20125;-80
2023/02/10 06:09:29;;;;;;;55.20;27.83;;;;;;;-0.07;100.00;102505.38;4995092;28;20033;-80
2023/02/10 06:11:56;;;;;;;56.73;27.97;;;;;;;-0.13;100.00;102501.56;4978419;28;20118;-79
2023/02/10 06:14:23;;;;;;;50.73;26.13;;;;;;;-0.12;100.00;102505.94;4994526;28;20050;-81
2023/02/10 06:16:49;;;;;;;55.17;27.20;;;;;;;-0.06;100.00;102506.25;4976116;28;20058;-80
2023/02/10 06:19:16;;;;;;;50.63;26.47;;;;;;;-0.09;100.00;102506.06;4976445;28;20455;-79
2023/02/10 06:21:46;;;;;;;55.30;25.20;;;;;;;-0.05;100.00;102508.94;4981129;28;20042;-82
2023/02/10 06:24:12;;;;;;;49.57;24.37;;;;;;;-0.05;100.00;102510.63;4974260;28;20040;-81
2023/02/10 06:26:39;;;;;;;55.97;26.77;;;;;;;-0.06;100.00;102507.16;4993566;28;20042;-81
2023/02/10 06:29:06;;;;;;;56.90;26.17;;;;;;;-0.10;100.00;102510.38;4993512;28;20041;-81
2023/02/10 06:31:33;;;;;;;55.60;27.33;;;;;;;-0.02;100.00;102508.19;4976422;28;20038;-81
2023/02/10 06:33:59;;;;;;;49.87;26.80;;;;;;;-0.04;100.00;102513.31;4992938;28;20057;-82
2023/02/10 06:36:26;;;;;;;51.30;26.33;;;;;;;-0.10;100.00;102518.19;4976715;28;20050;-81
2023/02/10 06:38:53;;;;;;;52.83;26.03;;;;;;;-0.08;100.00;102524.38;4976616;28;20803;-83
2023/02/10 06:41:19;;;;;;;54.23;26.50;;;;;;;-0.08;100.00;102532.16;4993067;28;20166;-81
2023/02/10 06:43:47;;;;;;;56.83;26.13;;;;;;;-0.16;100.00;102530.88;4976948;28;20050;-83
2023/02/10 06:46:15;;;;;;;59.33;26.50;;;;;;;-0.15;100.00;102522.25;4976823;28;20050;-81
2023/02/10 06:48:42;;;;;;;55.83;25.37;;;;;;;-0.18;100.00;102521.19;4962688;28;20472;-81
2023/02/10 06:51:08;;;;;;;55.83;26.67;;;;;;;-0.19;100.00;102522.88;4999634;28;20081;-82
2023/02/10 06:53:35;;;;;;;50.50;25.00;;;;;;;-0.15;100.00;102519.66;4981995;28;20038;-82
2023/02/10 06:56:05;;;;;;;54.77;26.07;;;;;;;-0.26;100.00;102520.78;4992940;28;20475;-82
2023/02/10 06:58:31;;;;;;;58.13;27.93;;;;;;;-0.17;100.00;102523.88;4993305;28;20135;-81
2023/02/10 07:01:00;;;;;;;54.87;26.73;;;;;;;-0.28;100.00;102527.59;4977424;28;20115;-81
2023/02/10 07:03:27;;;;;;;53.07;25.80;;;;;;;-0.20;100.00;102535.81;4976474;28;20038;-80
2023/02/10 07:05:54;;;;;;;51.67;26.37;;;;;;;-0.29;100.00;102533.59;4992602;28;20052;-82
2023/02/10 07:08:20;;;;;;;49.77;25.00;;;;;;;-0.32;100.00;102533.44;4975629;28;20053;-81
2023/02/10 07:10:47;;;;;;;56.40;27.57;;;;;;;-0.29;100.00;102539.69;4992725;28;20045;-82
2023/02/10 07:13:14;;;;;;;50.90;25.30;;;;;;;-0.20;100.00;102541.00;4975273;28;20491;-82
2023/02/10 07:15:41;;;;;;;50.43;25.30;;;;;;;-0.24;100.00;102537.34;4989641;28;20713;-81
2023/02/10 07:18:08;;;;;;;48.33;23.83;;;;;;;-0.30;100.00;102542.22;4956240;28;20808;-81
2023/02/10 07:20:35;;;;;;;58.57;27.57;;;;;;;-0.33;100.00;102542.94;4971740;28;20050;-81
2023/02/10 07:23:02;;;;;;;52.17;26.43;;;;;;;-0.24;100.00;102537.34;4976367;28;20053;-82
2023/02/10 07:25:29;;;;;;;50.33;24.43;;;;;;;-0.31;100.00;102548.22;4992223;28;20715;-81
2023/02/10 07:27:55;;;;;;;49.87;25.93;;;;;;;-0.35;100.00;102560.13;4991855;28;20038;-81
2023/02/10 07:30:22;;;;;;;50.47;24.87;;;;;;;-0.18;100.00;102561.03;4991782;28;20100;-82
2023/02/10 07:32:49;;;;;;;49.93;25.23;;;;;;;-0.30;100.00;102555.19;4992589;28;20038;-81
2023/02/10 07:35:16;;;;;;;53.50;24.67;;;;;;;-0.24;100.00;102558.13;5006908;28;20137;-81
2023/02/10 07:37:43;;;;;;;47.23;24.73;;;;;;;-0.26;100.00;102567.53;4958987;28;20578;-82
2023/02/10 07:40:10;;;;;;;53.60;25.03;;;;;;;-0.19;100.00;102572.25;4991566;28;20427;-81
2023/02/10 07:42:37;;;;;;;55.27;26.07;;;;;;;-0.22;100.00;102561.69;4991567;28;20048;-81
2023/02/10 07:45:04;;;;;;;52.07;25.53;;;;;;;-0.15;100.00;102579.41;4975925;28;20077;-83
2023/02/10 07:47:31;;;;;;;55.23;25.60;;;;;;;0.05;100.00;102576.97;4975978;28;20470;-82
2023/02/10 07:49:57;;;;;;;51.83;25.77;;;;;;;0.07;100.00;102577.94;4974908;28;20053;-81
2023/02/10 07:52:24;;;;;;;51.30;25.43;;;;;;;-0.01;100.00;102574.94;4990514;28;20050;-81
2023/02/10 07:54:50;;;;;;;48.07;24.73;;;;;;;0.03;100.00;102582.09;4992587;28;20041;-82
2023/02/10 07:57:17;;;;;;;54.80;26.07;;;;;;;0.13;100.00;102580.88;4975168;28;20042;-81
2023/02/10 07:59:44;;;;;;;51.60;25.80;;;;;;;0.22;100.00;102576.16;4988197;28;20042;-82
2023/02/10 08:02:11;;;;;;;48.43;24.07;;;;;;;0.39;100.00;102574.41;4959789;28;20052;-82
2023/02/10 08:04:38;;;;;;;52.60;24.20;;;;;;;0.35;100.00;102581.19;4990234;28;20053;-81
2023/02/10 08:07:04;;;;;;;53.33;25.47;;;;;;;0.44;100.00;102583.34;5009049;28;20042;-82
2023/02/10 08:09:31;;;;;;;45.43;24.63;;;;;;;0.55;100.00;102582.19;4975811;28;20467;-81
2023/02/10 08:11:57;;;;;;;47.73;23.20;;;;;;;0.56;100.00;102584.88;4975719;28;20052;-83
2023/02/10 08:14:24;;;;;;;54.10;25.43;;;;;;;0.59;100.00;102585.81;4991973;28;20049;-81
2023/02/10 08:16:51;;;;;;;47.97;24.67;;;;;;;0.72;100.00;102590.84;4990709;28;20038;-82
2023/02/10 08:19:17;;;;;;;47.00;23.73;;;;;;;0.83;100.00;102585.34;4989444;28;20046;-81
2023/02/10 08:21:44;;;;;;;50.93;24.43;;;;;;;0.92;100.00;102581.44;4975909;28;20646;-83
2023/02/10 08:24:11;;;;;;;47.73;23.87;;;;;;;0.99;100.00;102576.59;4992081;28;20046;-81
2023/02/10 08:26:37;;;;;;;48.70;23.77;;;;;;;0.95;100.00;102579.00;4990980;28;20398;-82
2023/02/10 08:29:04;;;;;;;45.60;23.23;;;;;;;1.06;100.00;102586.50;4974346;28;20046;-83
2023/02/10 08:31:31;;;;;;;49.83;23.27;;;;;;;1.10;100.00;102585.84;4975939;28;20096;-82
2023/02/10 08:33:58;;;;;;;48.77;22.40;;;;;;;1.21;100.00;102593.28;4959855;28;20045;-84
2023/02/10 08:36:24;;;;;;;46.93;21.77;;;;;;;1.20;100.00;102596.72;4974206;28;20062;-82
2023/02/10 08:38:51;;;;;;;45.47;21.40;;;;;;;1.27;100.00;102591.88;4991279;28;20089;-82
2023/02/10 08:41:18;;;;;;;45.13;22.93;;;;;;;1.32;100.00;102587.75;4991137;28;20048;-83
2023/02/10 08:43:45;;;;;;;50.53;23.90;;;;;;;1.42;100.00;102594.28;4979867;28;20050;-82
2023/02/10 08:46:12;;;;;;;51.20;24.27;;;;;;;1.53;100.00;102593.13;4955968;28;20153;-82
2023/02/10 08:48:39;;;;;;;52.10;23.33;;;;;;;1.57;100.00;102595.03;4952300;28;20062;-82
2023/02/10 08:51:11;;;;;;;45.30;22.93;;;;;;;1.44;100.00;102592.69;4974748;28;20034;-82
2023/02/10 08:53:37;;;;;;;48.30;22.87;;;;;;;1.59;100.00;102598.59;4989105;28;20058;-83
2023/02/10 08:56:10;;;;;;;43.30;21.83;;;;;;;1.65;100.00;102590.19;4957123;28;20062;-82
2023/02/10 08:58:37;;;;;;;42.33;23.63;;;;;;;1.62;100.00;102595.25;4950033;28;20053;-81
2023/02/10 09:01:30;;;;;;;47.67;24.10;;;;;;;1.70;100.00;102593.91;4975963;28;20038;-81
2023/02/10 09:03:57;;;;;;;49.17;22.40;;;;;;;1.70;100.00;102596.50;4974477;28;20050;-80
2023/02/10 09:06:42;;;;;;;52.43;23.17;;;;;;;1.74;100.00;102592.31;4959341;28;20055;-82
2023/02/10 09:09:09;;;;;;;;;;;;;;;1.76;100.00;102601.97;4981541;28;20042;-80
2023/02/10 09:11:36;;;;;;;45.20;21.90;;;;;;;1.81;100.00;102597.88;4987338;28;19987;-82
2023/02/10 09:14:03;;;;;;;46.97;24.50;;;;;;;1.86;100.00;102588.56;4979925;28;20499;-83
2023/02/10 09:16:30;;;;;;;46.40;23.43;;;;;;;1.88;100.00;102591.25;4960073;28;20483;-81
2023/02/10 09:18:59;;;;;;;49.37;24.53;;;;;;;1.96;100.00;102597.69;4977690;28;20053;-83
2023/02/10 09:21:26;;;;;;;67.60;28.53;;;;;;;1.90;100.00;102595.69;4970207;28;20041;-83
2023/02/10 09:24:09;;;;;;;59.40;27.50;;;;;;;1.98;100.00;102598.66;4978485;28;20050;-81
2023/02/10 09:26:39;;;;;;;62.97;29.47;;;;;;;2.02;100.00;102605.81;4982741;28;20132;-82
2023/02/10 09:29:07;;;;;;;72.30;36.80;;;;;;;2.01;100.00;102603.09;4977324;28;20048;-81
2023/02/10 09:31:34;;;;;;;47.07;24.90;;;;;;;2.04;100.00;102598.94;4982920;28;20478;-82
2023/02/10 09:34:02;;;;;;;60.93;29.90;;;;;;;2.06;100.00;102617.25;4983129;28;20380;-80
2023/02/10 09:36:29;;;;;;;102.13;49.37;;;;;;;2.02;100.00;102623.13;4983506;28;20067;-80
2023/02/10 09:38:56;;;;;;;93.20;42.83;;;;;;;2.10;100.00;102612.25;4970149;28;20041;-81
2023/02/10 09:41:28;;;;;;;87.17;41.73;;;;;;;2.11;100.00;102620.97;5056468;23;20041;-80
2023/02/10 09:44:04;;;;;;;95.80;48.33;;;;;;;2.15;100.00;102613.34;5006276;28;20096;-81
2023/02/10 09:46:46;;;;;;;116.53;60.57;;;;;;;2.15;100.00;102623.78;5015287;28;20061;-84
2023/02/10 09:49:42;;;;;;;84.50;42.97;;;;;;;2.23;100.00;102635.44;5013363;28;20041;-79
2023/02/10 09:52:37;;;;;;;86.20;47.23;;;;;;;2.16;100.00;102637.69;5024108;28;20034;-81
2023/02/10 09:55:13;;;;;;;53.95;27.42;;;;;;;2.18;100.00;102643.88;4996539;28;20041;-80
2023/02/10 09:57:43;;;;;;;72.67;35.23;;;;;;;2.24;100.00;102646.75;4990151;28;20041;-80
2023/02/10 10:00:23;;;;;;;53.10;25.87;;;;;;;2.11;100.00;102647.94;5015131;28;20399;-80
2023/02/10 10:02:53;;;;;;;51.40;26.20;;;;;;;2.14;100.00;102641.97;4994751;28;20481;-80
2023/02/10 10:05:35;;;;;;;68.30;30.40;;;;;;;2.21;100.00;102642.31;4977916;28;20045;-80
2023/02/10 10:08:04;;;;;;;66.13;30.90;;;;;;;2.35;100.00;102650.75;4995000;28;20049;-80
2023/02/10 10:10:35;;;;;;;70.83;35.90;;;;;;;2.35;100.00;102647.25;4983264;28;20052;-80
2023/02/10 10:13:01;;;;;;;75.43;36.73;;;;;;;2.35;100.00;102649.84;5014367;28;20033;-79
2023/02/10 10:15:37;;;;;;;52.57;26.87;;;;;;;2.41;100.00;102647.53;5012619;28;20052;-81
2023/02/10 10:18:21;;;;;;;50.87;27.60;;;;;;;2.40;100.00;102659.69;4974834;28;20049;-80
2023/02/10 10:20:53;;;;;;;54.37;27.80;;;;;;;2.42;100.00;102664.97;4998802;28;20045;-80
2023/02/10 10:23:30;;;;;;;53.07;23.83;;;;;;;2.47;100.00;102651.31;4984928;28;20046;-82
2023/02/10 10:26:08;;;;;;;49.73;23.90;;;;;;;2.48;100.00;102650.47;4982421;28;20444;-80
2023/02/10 10:28:47;;;;;;;54.53;27.80;;;;;;;2.60;100.00;102649.22;4998553;28;20107;-82
2023/02/10 10:31:30;;;;;;;54.23;26.00;;;;;;;2.69;100.00;102647.00;4998954;28;20050;-82
2023/02/10 10:34:06;;;;;;;52.97;25.87;;;;;;;2.78;100.00;102639.59;4998735;28;20053;-84
2023/02/10 10:36:35;;;;;;;49.97;21.70;;;;;;;2.80;100.00;102648.38;5025187;28;20060;-82
2023/02/10 10:39:31;;;;;;;44.33;21.17;;;;;;;2.97;100.00;102646.50;4982070;28;20053;-83
2023/02/10 10:42:00;;;;;;;51.70;23.60;;;;;;;2.99;100.00;102650.06;4979209;28;20045;-83
2023/02/10 10:44:30;;;;;;;50.10;22.67;;;;;;;3.00;100.00;102651.84;4983312;28;20510;-82
2023/02/10 10:47:13;;;;;;;43.87;21.87;;;;;;;3.10;100.00;102644.44;5012631;28;20045;-81
2023/02/10 10:49:40;;;;;;;42.27;20.87;;;;;;;3.17;100.00;102645.59;4994763;28;20045;-84
2023/02/10 10:52:36;;;;;;;43.37;20.13;;;;;;;3.19;100.00;102650.88;4991073;28;20042;-79
2023/02/10 10:55:06;;;;;;;39.07;20.77;;;;;;;3.18;100.00;102650.00;4975445;28;20050;-79
2023/02/10 10:57:33;;;;;;;38.13;19.70;;;;;;;3.08;100.00;102655.66;4978805;28;20809;-81
2023/02/10 11:00:20;;;;;;;47.00;22.73;;;;;;;3.04;100.00;102644.22;4985463;28;20052;-83
2023/02/10 11:02:52;;;;;;;44.03;21.67;;;;;;;3.01;100.00;102641.44;4996603;28;20478;-82
2023/02/10 11:05:20;;;;;;;44.00;22.00;;;;;;;2.98;100.00;102643.06;5013673;28;20072;-81
2023/02/10 11:07:49;;;;;;;46.27;20.70;;;;;;;3.01;100.00;102620.56;4986430;28;20479;-81
2023/02/10 11:10:33;;;;;;;44.20;21.80;;;;;;;3.12;100.00;102615.81;5007965;28;20089;-81
2023/02/10 11:13:01;;;;;;;39.83;20.57;;;;;;;3.35;100.00;102619.31;4994112;28;20068;-81
2023/02/10 11:15:38;;;;;;;42.57;21.03;;;;;;;3.45;100.00;102621.50;4981283;28;20048;-81